Time;durP1;ratioP1;P1;durP2;ratioP2;P2;SDS_P1;SDS_P2;PMS_P1;PMS_P2;Temp;Humidity;BMP_temperature;BMP_pressure;BME280_temperature;BME280_humidity;BME280_pressure;Samples;Min_cycle;Max_cycle;Signal;HPM_P1;HPM_P2
2022/12/09 00:01:11;;;;;;;10.97;7.93;;;;;;;-0.26;83.96;97752.34;4974190;28;103695;-70
2022/12/09 00:03:42;;;;;;;8.13;6.83;;;;;;;-0.02;83.99;97746.03;4964447;28;104216;-69
2022/12/09 00:06:15;;;;;;;9.37;7.40;;;;;;;0.11;83.41;97741.16;4962844;28;103309;-70
2022/12/09 00:08:43;;;;;;;8.83;6.93;;;;;;;0.14;83.20;97736.63;4963879;28;102588;-70
2022/12/09 00:11:13;;;;;;;9.50;7.17;;;;;;;0.08;82.26;97736.94;4984746;28;102597;-70
2022/12/09 00:13:41;;;;;;;8.93;6.40;;;;;;;-0.20;84.61;97728.72;4963087;28;104127;-69
2022/12/09 00:16:12;;;;;;;10.03;7.23;;;;;;;-0.02;84.31;97725.25;4964841;28;103242;-69
2022/12/09 00:18:40;;;;;;;6.83;5.60;;;;;;;0.14;84.18;97721.06;4958072;28;103976;-72
2022/12/09 00:21:13;;;;;;;7.80;5.67;;;;;;;0.28;83.16;97718.66;4959892;28;102657;-70
2022/12/09 00:23:41;;;;;;;7.90;6.27;;;;;;;0.31;82.28;97730.69;4969528;28;103212;-72
2022/12/09 00:26:10;;;;;;;9.47;7.13;;;;;;;0.04;80.98;97714.59;4950844;28;103447;-69
2022/12/09 00:28:39;;;;;;;9.10;5.77;;;;;;;0.08;82.31;97716.16;4963994;28;102804;-69
2022/12/09 00:31:08;;;;;;;7.30;5.53;;;;;;;0.22;82.14;97718.97;4972693;28;102636;-69
2022/12/09 00:33:36;;;;;;;6.57;5.23;;;;;;;0.28;81.72;97718.66;4978950;28;103243;-70
2022/12/09 00:36:13;;;;;;;8.17;6.90;;;;;;;0.22;80.47;97718.97;4978425;28;103197;-70
2022/12/09 00:38:42;;;;;;;10.83;7.57;;;;;;;-0.17;81.18;97715.59;4982212;28;102551;-71
2022/12/09 00:41:10;;;;;;;10.17;7.50;;;;;;;-0.18;82.35;97713.91;4981789;28;102825;-69
2022/12/09 00:43:41;;;;;;;7.97;6.10;;;;;;;-0.07;82.78;97701.28;4962815;28;104421;-69
2022/12/09 00:46:09;;;;;;;11.60;7.83;;;;;;;-0.26;82.20;97706.47;4969812;28;105383;-69
2022/12/09 00:48:38;;;;;;;7.40;5.63;;;;;;;-0.05;83.34;97710.66;4983148;28;102734;-68
2022/12/09 00:51:07;;;;;;;8.37;5.80;;;;;;;0.07;83.05;97713.63;4965831;28;103017;-69
2022/12/09 00:53:35;;;;;;;8.57;6.33;;;;;;;0.10;82.14;97709.13;4980733;28;104041;-69
2022/12/09 00:56:03;;;;;;;10.13;6.53;;;;;;;0.07;81.55;97717.06;4965810;28;103252;-68
2022/12/09 00:58:34;;;;;;;10.53;6.60;;;;;;;0.08;81.14;97715.31;4986310;28;102597;-69
2022/12/09 01:01:04;;;;;;;7.90;5.77;;;;;;;-0.22;82.13;97712.34;4977820;28;102637;-69
2022/12/09 01:03:32;;;;;;;9.90;5.93;;;;;;;-0.09;82.04;97713.50;4956687;28;104225;-69
2022/12/09 01:06:00;;;;;;;9.00;6.43;;;;;;;-0.04;82.19;97716.72;4979064;28;104125;-70
2022/12/09 01:08:31;;;;;;;9.63;7.00;;;;;;;-0.09;82.11;97713.50;4950352;28;102668;-69
2022/12/09 01:10:59;;;;;;;10.27;6.63;;;;;;;-0.07;82.04;97711.66;4961331;28;102701;-70
2022/12/09 01:13:27;;;;;;;8.73;6.70;;;;;;;-0.12;81.39;97718.81;4967236;28;103320;-69
2022/12/09 01:15:55;;;;;;;8.70;5.87;;;;;;;-0.16;82.27;97727.63;4968556;28;103282;-70
2022/12/09 01:18:25;;;;;;;8.33;7.10;;;;;;;-0.21;81.58;97730.47;4979157;28;102640;-69
2022/12/09 01:20:56;;;;;;;8.93;6.50;;;;;;;-0.42;82.65;97725.38;4976543;28;102679;-70
2022/12/09 01:23:25;;;;;;;8.83;6.43;;;;;;;-0.76;84.01;97729.41;4969785;28;103472;-70
2022/12/09 01:25:53;;;;;;;6.93;5.77;;;;;;;-0.49;84.31;97734.31;4968381;28;104252;-70
2022/12/09 01:28:21;;;;;;;9.13;6.90;;;;;;;-0.50;83.79;97727.44;4967045;28;104054;-70
2022/12/09 01:30:49;;;;;;;8.50;6.10;;;;;;;-0.72;83.09;97723.19;4963386;28;102701;-70
2022/12/09 01:33:17;;;;;;;8.40;6.00;;;;;;;-0.94;85.59;97727.59;4968805;28;103946;-70
2022/12/09 01:35:46;;;;;;;8.50;6.23;;;;;;;-0.72;85.43;97717.16;4960174;28;104412;-68
2022/12/09 01:38:16;;;;;;;9.37;7.10;;;;;;;-0.56;84.99;97719.94;4968953;28;103100;-71
2022/12/09 01:40:46;;;;;;;9.47;6.20;;;;;;;-0.44;84.56;97715.03;4980505;28;103930;-69
2022/12/09 01:43:17;;;;;;;9.90;7.27;;;;;;;-0.48;83.85;97713.50;4982688;28;103684;-69
2022/12/09 01:45:46;;;;;;;7.93;5.90;;;;;;;-0.34;84.08;97712.91;4960102;28;103262;-70
2022/12/09 01:48:18;;;;;;;7.63;6.00;;;;;;;-0.33;83.57;97704.19;4978144;28;102653;-70
2022/12/09 01:50:52;;;;;;;9.83;6.73;;;;;;;-0.42;83.01;97705.44;4982995;28;104019;-67
2022/12/09 01:53:24;;;;;;;7.97;6.43;;;;;;;-0.36;83.29;97707.75;4966652;28;103860;-67
2022/12/09 01:55:58;;;;;;;9.37;6.20;;;;;;;-0.35;82.78;97695.63;4964897;28;103105;-68
2022/12/09 01:58:28;;;;;;;11.77;7.27;;;;;;;-0.47;82.72;97701.34;4965091;28;102571;-69
2022/12/09 02:00:56;;;;;;;8.37;6.23;;;;;;;-0.46;83.27;97700.47;4979565;28;103661;-70
2022/12/09 02:03:24;;;;;;;7.93;6.10;;;;;;;-0.37;83.39;97692.28;4959629;28;104112;-70
2022/12/09 02:05:54;;;;;;;7.27;5.23;;;;;;;-0.27;83.41;97683.16;4966950;28;103623;-71
2022/12/09 02:08:22;;;;;;;6.63;5.53;;;;;;;-0.23;82.81;97685.56;4980308;28;102980;-69
2022/12/09 02:11:04;;;;;;;9.30;6.97;;;;;;;-0.22;82.07;97681.19;4962128;28;103159;-70
2022/12/09 02:13:47;;;;;;;11.07;7.20;;;;;;;-0.66;80.13;97680.56;4966227;28;104671;-69
2022/12/09 02:16:19;;;;;;;9.90;7.37;;;;;;;-0.97;82.33;97673.28;4979308;28;104211;-69
2022/12/09 02:18:53;;;;;;;10.47;7.30;;;;;;;-1.13;83.67;97667.06;4964263;28;102689;-69
2022/12/09 02:21:28;;;;;;;9.27;7.20;;;;;;;-1.06;84.18;97652.91;4970309;28;102564;-69
2022/12/09 02:24:03;;;;;;;8.90;6.80;;;;;;;-1.01;83.39;97653.56;4989631;28;104096;-69
2022/12/09 02:26:41;;;;;;;9.67;6.87;;;;;;;-0.83;83.79;97647.59;4967941;28;104301;-69
2022/12/09 02:29:35;;;;;;;8.37;5.97;;;;;;;-0.83;83.86;97657.97;4961257;28;102742;-69
2022/12/09 02:32:42;;;;;;;7.93;5.60;;;;;;;-0.64;84.21;97660.59;4982657;28;102727;-69
2022/12/09 02:35:23;;;;;;;7.77;5.97;;;;;;;-0.57;83.86;97658.56;4970772;28;103277;-70
2022/12/09 02:37:58;;;;;;;8.07;6.43;;;;;;;-0.60;82.13;97655.22;4952116;28;103206;-69
2022/12/09 02:40:33;;;;;;;9.33;6.37;;;;;;;-0.59;81.97;97664.66;4978110;28;102955;-69
2022/12/09 02:43:05;;;;;;;8.40;6.50;;;;;;;-0.66;81.20;97665.88;4965497;28;102630;-68
2022/12/09 02:45:37;;;;;;;9.73;7.20;;;;;;;-0.73;81.01;97661.84;4978454;28;105373;-69
2022/12/09 02:48:06;;;;;;;13.23;7.70;;;;;;;-0.87;81.36;97651.22;4979566;28;103200;-68
2022/12/09 02:50:38;;;;;;;11.90;7.80;;;;;;;-1.62;82.75;97650.09;4984865;28;102634;-69
2022/12/09 02:53:10;;;;;;;9.83;6.60;;;;;;;-1.34;84.99;97650.66;4990862;28;102642;-68
2022/12/09 02:55:42;;;;;;;11.57;7.13;;;;;;;-1.30;83.44;97646.19;4974275;28;103813;-69
2022/12/09 02:58:11;;;;;;;9.93;7.87;;;;;;;-1.31;84.01;97649.66;4964846;28;103165;-67
2022/12/09 03:00:40;;;;;;;7.97;6.00;;;;;;;-1.18;83.96;97640.50;4984895;28;102696;-68
2022/12/09 03:03:14;;;;;;;8.10;6.27;;;;;;;-0.98;84.42;97637.88;4960386;28;104050;-69
2022/12/09 03:05:50;;;;;;;9.97;7.20;;;;;;;-1.28;82.48;97629.66;4959240;28;104196;-69
2022/12/09 03:08:28;;;;;;;9.40;6.87;;;;;;;-1.43;83.83;97619.94;4961308;28;103190;-69
2022/12/09 03:11:00;;;;;;;8.13;6.47;;;;;;;-1.22;83.96;97619.03;4965257;28;103046;-69
2022/12/09 03:13:42;;;;;;;10.17;6.50;;;;;;;-1.05;84.61;97618.31;4978028;28;102716;-68
2022/12/09 03:16:17;;;;;;;8.47;6.33;;;;;;;-1.08;83.61;97621.03;4965536;28;104045;-68
2022/12/09 03:18:48;;;;;;;9.63;7.50;;;;;;;-1.33;82.41;97615.22;4954704;28;103169;-68
2022/12/09 03:21:22;;;;;;;7.47;6.57;;;;;;;-1.56;84.72;97611.00;4970026;28;102645;-69
2022/12/09 03:23:52;;;;;;;10.17;6.47;;;;;;;-1.29;84.91;97609.00;4963621;28;103803;-69
2022/12/09 03:26:22;;;;;;;10.47;7.87;;;;;;;-1.31;83.67;97603.03;4968185;28;103304;-69
2022/12/09 03:28:53;;;;;;;9.67;6.40;;;;;;;-1.31;84.36;97608.22;4969808;28;103549;-69
2022/12/09 03:31:26;;;;;;;8.90;6.87;;;;;;;-1.32;83.13;97606.53;4962377;28;102542;-69
2022/12/09 03:34:02;;;;;;;7.30;5.30;;;;;;;-1.30;83.74;97604.72;4970910;28;102796;-70
2022/12/09 03:36:36;;;;;;;10.27;5.73;;;;;;;-1.14;83.99;97605.75;4980246;28;104162;-69
2022/12/09 03:39:08;;;;;;;7.37;5.57;;;;;;;-1.01;82.99;97609.47;4952972;28;103219;-70
2022/12/09 03:41:41;;;;;;;8.07;6.50;;;;;;;-1.23;81.24;97601.78;4966028;28;102530;-70
2022/12/09 03:44:16;;;;;;;9.20;6.57;;;;;;;-1.72;83.21;97611.69;4970994;28;102684;-69
2022/12/09 03:46:45;;;;;;;9.17;6.23;;;;;;;-1.50;84.86;97608.16;4968753;28;104264;-68
2022/12/09 03:49:14;;;;;;;8.40;6.40;;;;;;;-1.34;84.26;97603.16;4961078;28;103265;-68
2022/12/09 03:51:47;;;;;;;8.47;6.63;;;;;;;-1.93;83.76;97598.69;4970968;28;102847;-69
2022/12/09 03:54:22;;;;;;;7.77;5.90;;;;;;;-1.65;85.19;97589.78;4967575;28;102975;-69
2022/12/09 03:56:53;;;;;;;8.63;6.40;;;;;;;-1.50;84.18;97596.94;4968541;28;104087;-69
2022/12/09 03:59:23;;;;;;;7.13;5.03;;;;;;;-1.35;84.59;97601.50;4982717;28;103198;-69
2022/12/09 04:01:52;;;;;;;8.17;6.53;;;;;;;-1.40;84.02;97600.81;4959926;28;102895;-69
2022/12/09 04:04:21;;;;;;;9.33;5.87;;;;;;;-1.34;84.07;97592.78;4973217;28;102631;-70
2022/12/09 04:06:52;;;;;;;7.10;5.83;;;;;;;-1.24;83.17;97594.09;4961792;28;103898;-70
2022/12/09 04:09:21;;;;;;;6.60;5.03;;;;;;;-1.12;83.92;97596.16;4965562;28;103911;-70
2022/12/09 04:11:49;;;;;;;8.20;5.40;;;;;;;-1.06;83.12;97601.06;4965813;28;102899;-70
2022/12/09 04:14:17;;;;;;;8.13;5.27;;;;;;;-1.00;82.52;97597.38;4962332;28;103640;-70
2022/12/09 04:16:46;;;;;;;8.00;5.80;;;;;;;-1.09;81.39;97596.00;4974226;28;103279;-70
2022/12/09 04:19:14;;;;;;;8.60;6.63;;;;;;;-1.35;81.73;97599.72;4954290;28;102610;-70
2022/12/09 04:21:42;;;;;;;9.20;6.43;;;;;;;-1.58;82.11;97599.00;4946534;28;102593;-69
2022/12/09 04:24:12;;;;;;;8.27;6.27;;;;;;;-2.25;85.64;97600.88;4953719;28;105784;-69
2022/12/09 04:26:40;;;;;;;7.73;6.13;;;;;;;-2.06;85.70;97592.31;4976444;28;104285;-70
2022/12/09 04:29:09;;;;;;;8.70;6.03;;;;;;;-1.75;85.71;97586.75;4961760;28;104535;-68
2022/12/09 04:31:37;;;;;;;7.50;5.83;;;;;;;-1.64;84.76;97573.34;4961461;28;102961;-68
2022/12/09 04:34:05;;;;;;;9.00;6.77;;;;;;;-1.52;84.10;97567.69;4959856;28;104050;-68
2022/12/09 04:36:37;;;;;;;8.07;6.07;;;;;;;-1.49;84.26;97567.56;4970158;28;104521;-70
2022/12/09 04:39:06;;;;;;;10.07;6.73;;;;;;;-1.92;86.11;97561.56;4988508;28;103489;-71
2022/12/09 04:41:36;;;;;;;9.73;6.70;;;;;;;-1.70;87.13;97556.31;4961850;28;102622;-70
2022/12/09 04:44:04;;;;;;;8.00;5.80;;;;;;;-1.42;85.87;97545.63;4963678;28;102995;-70
2022/12/09 04:46:32;;;;;;;9.57;5.47;;;;;;;-1.27;85.21;97542.41;4959289;28;103324;-70
2022/12/09 04:49:01;;;;;;;7.30;5.90;;;;;;;-1.19;84.13;97541.16;4967932;28;103329;-71
2022/12/09 04:51:28;;;;;;;7.93;5.83;;;;;;;-1.13;83.77;97539.19;4967427;28;102657;-67
2022/12/09 04:54:06;;;;;;;11.13;6.03;;;;;;;-1.12;83.06;97536.53;4961682;28;103967;-67
2022/12/09 04:56:35;;;;;;;13.37;7.13;;;;;;;-1.19;81.47;97535.13;4946000;28;103412;-69
2022/12/09 04:59:04;;;;;;;10.17;6.73;;;;;;;-1.25;82.15;97525.03;4945613;28;103257;-68
2022/12/09 05:01:35;;;;;;;10.23;7.07;;;;;;;-1.42;81.50;97527.50;4962184;28;102723;-67
2022/12/09 05:04:04;;;;;;;9.93;7.37;;;;;;;-1.36;82.27;97522.06;4957785;28;103921;-68
2022/12/09 05:06:32;;;;;;;10.50;6.57;;;;;;;-1.58;81.70;97516.13;4966768;28;103769;-72
2022/12/09 05:09:03;;;;;;;7.53;6.13;;;;;;;-1.76;84.36;97518.59;4954470;28;103248;-73
2022/12/09 05:11:32;;;;;;;9.43;6.37;;;;;;;-1.50;84.78;97521.81;4954582;28;102967;-74
2022/12/09 05:14:01;;;;;;;8.00;5.47;;;;;;;-1.30;85.15;97519.22;4970537;28;102759;-70
2022/12/09 05:16:30;;;;;;;7.97;5.80;;;;;;;-1.26;84.44;97520.75;4964300;28;103240;-67
2022/12/09 05:18:59;;;;;;;9.03;6.93;;;;;;;-1.21;83.85;97511.03;4961679;28;103290;-68
2022/12/09 05:21:28;;;;;;;8.77;5.27;;;;;;;-1.23;83.69;97512.84;4962682;28;102739;-67
2022/12/09 05:23:58;;;;;;;11.03;6.97;;;;;;;-1.24;83.24;97506.00;4969176;28;102668;-67
2022/12/09 05:26:26;;;;;;;8.80;7.27;;;;;;;-1.33;82.92;97516.75;4940500;28;103314;-67
2022/12/09 05:28:54;;;;;;;6.53;5.30;;;;;;;-1.22;83.41;97507.59;4961125;28;103191;-67
2022/12/09 05:31:24;;;;;;;7.70;5.53;;;;;;;-1.14;83.22;97507.25;4969012;28;102606;-68
2022/12/09 05:33:52;;;;;;;9.07;6.93;;;;;;;-1.10;82.82;97515.75;4981383;28;102674;-70
2022/12/09 05:36:23;;;;;;;11.33;8.53;;;;;;;-1.19;82.06;97511.81;4954207;28;103174;-69
2022/12/09 05:38:52;;;;;;;9.77;7.00;;;;;;;-1.29;82.35;97507.94;4967075;28;103388;-68
2022/12/09 05:41:21;;;;;;;11.93;7.17;;;;;;;-1.42;82.56;97506.78;4977773;28;102696;-68
2022/12/09 05:43:52;;;;;;;10.33;7.03;;;;;;;-1.66;83.07;97502.66;4979786;28;102849;-68
2022/12/09 05:46:21;;;;;;;8.60;6.67;;;;;;;-1.57;84.10;97497.09;4932742;28;104303;-71
2022/12/09 05:48:51;;;;;;;9.30;6.50;;;;;;;-1.56;84.62;97491.84;4939553;28;103337;-74
2022/12/09 05:51:24;;;;;;;9.83;7.00;;;;;;;-1.52;85.56;97488.22;4974302;28;102762;-71
2022/12/09 05:53:52;;;;;;;10.60;7.13;;;;;;;-1.44;85.62;97487.88;4955374;28;103244;-69
2022/12/09 05:56:22;;;;;;;8.30;5.83;;;;;;;-1.23;85.83;97490.38;4968643;28;102981;-69
2022/12/09 05:58:53;;;;;;;6.77;5.57;;;;;;;-1.18;85.46;97485.81;4965778;28;103343;-69
2022/12/09 06:01:22;;;;;;;8.97;6.83;;;;;;;-1.40;83.35;97477.31;4963651;28;103021;-69
2022/12/09 06:03:53;;;;;;;9.43;7.33;;;;;;;-1.76;84.37;97482.34;4960200;28;104101;-69
2022/12/09 06:06:25;;;;;;;10.27;7.37;;;;;;;-1.67;84.96;97482.84;4957428;28;104108;-69
2022/12/09 06:08:56;;;;;;;9.80;6.93;;;;;;;-1.43;85.12;97481.81;4964046;28;103387;-68
2022/12/09 06:11:25;;;;;;;7.70;5.97;;;;;;;-1.29;84.81;97482.03;4966691;28;102596;-69
2022/12/09 06:13:58;;;;;;;10.93;7.27;;;;;;;-1.37;83.47;97481.50;4967594;28;104632;-68
2022/12/09 06:16:29;;;;;;;11.33;7.50;;;;;;;-1.46;84.01;97474.16;4964714;28;103248;-69
2022/12/09 06:18:59;;;;;;;10.50;7.20;;;;;;;-1.42;83.93;97473.09;4974753;28;104178;-69
2022/12/09 06:21:27;;;;;;;9.37;7.07;;;;;;;-1.60;84.95;97461.78;4940557;28;103862;-69
2022/12/09 06:23:55;;;;;;;10.20;6.80;;;;;;;-1.64;85.64;97462.84;4963042;28;103903;-69
2022/12/09 06:26:26;;;;;;;9.10;6.80;;;;;;;-1.46;85.60;97468.97;4982560;28;104711;-70
2022/12/09 06:28:56;;;;;;;8.67;6.07;;;;;;;-1.27;85.74;97460.31;4962739;28;103257;-70
2022/12/09 06:31:24;;;;;;;9.07;7.27;;;;;;;-1.21;84.60;97474.75;4952726;28;102692;-70
2022/12/09 06:33:53;;;;;;;9.13;6.63;;;;;;;-1.59;84.78;97460.03;4972220;28;102763;-70
2022/12/09 06:36:26;;;;;;;9.30;6.30;;;;;;;-1.36;85.74;97459.88;4954876;28;104376;-70
2022/12/09 06:38:58;;;;;;;8.40;6.13;;;;;;;-1.23;85.52;97466.19;4963140;28;103213;-70
2022/12/09 06:41:32;;;;;;;7.87;5.90;;;;;;;-1.09;85.61;97458.63;4962427;28;102588;-70
2022/12/09 06:44:00;;;;;;;8.50;6.80;;;;;;;-1.15;84.71;97464.09;4946483;28;103521;-69
2022/12/09 06:46:28;;;;;;;10.53;7.47;;;;;;;-1.45;84.88;97468.91;4979147;28;103067;-70
2022/12/09 06:48:57;;;;;;;7.43;5.43;;;;;;;-1.27;85.94;97467.25;4976290;28;103367;-69
2022/12/09 06:51:26;;;;;;;7.50;6.47;;;;;;;-1.09;86.27;97474.19;4957700;28;102959;-69
2022/12/09 06:53:55;;;;;;;8.77;6.20;;;;;;;-1.06;85.27;97471.47;4970939;28;102666;-69
2022/12/09 06:56:26;;;;;;;7.73;5.93;;;;;;;-0.99;85.83;97462.50;4968960;28;103264;-70
2022/12/09 06:58:54;;;;;;;10.97;7.47;;;;;;;-1.32;85.42;97471.81;4966769;28;103202;-69
2022/12/09 07:01:24;;;;;;;6.23;5.00;;;;;;;-1.08;85.52;97473.28;4978470;28;102781;-69
2022/12/09 07:03:56;;;;;;;7.20;5.20;;;;;;;-0.88;86.22;97474.97;4962518;28;103880;-69
2022/12/09 07:06:28;;;;;;;8.93;6.07;;;;;;;-0.79;85.38;97472.81;4979638;28;104225;-69
2022/12/09 07:08:59;;;;;;;11.83;8.33;;;;;;;-1.08;83.26;97460.31;4975695;28;103189;-70
2022/12/09 07:11:28;;;;;;;11.63;8.37;;;;;;;-1.00;84.77;97462.56;4961991;28;102920;-69
2022/12/09 07:13:56;;;;;;;11.27;7.80;;;;;;;-0.90;84.38;97464.66;4977208;28;103567;-69
2022/12/09 07:16:25;;;;;;;11.93;7.60;;;;;;;-0.98;84.13;97469.34;4953776;28;103284;-69
2022/12/09 07:18:53;;;;;;;11.33;8.03;;;;;;;-1.02;84.19;97470.41;4979572;28;103250;-68
2022/12/09 07:21:24;;;;;;;10.50;7.33;;;;;;;-0.98;85.37;97471.94;4957394;28;102555;-69
2022/12/09 07:23:54;;;;;;;9.67;7.13;;;;;;;-0.85;85.37;97467.91;4940994;28;104042;-70
2022/12/09 07:26:24;;;;;;;14.27;8.67;;;;;;;-0.86;85.46;97463.63;4944460;28;103272;-69
2022/12/09 07:28:52;;;;;;;12.63;7.90;;;;;;;-0.73;86.10;97461.31;4952646;28;103196;-70
2022/12/09 07:31:22;;;;;;;12.67;8.47;;;;;;;-0.65;85.90;97461.78;4948787;28;103037;-69
2022/12/09 07:33:51;;;;;;;10.53;8.37;;;;;;;-0.71;85.60;97460.31;4974716;28;104316;-69
2022/12/09 07:36:21;;;;;;;12.13;9.17;;;;;;;-0.69;86.61;97455.88;4952321;28;103016;-70
2022/12/09 07:38:49;;;;;;;15.07;11.23;;;;;;;-0.49;86.78;97448.91;4962823;28;104388;-70
2022/12/09 07:41:19;;;;;;;11.97;8.70;;;;;;;-0.38;86.32;97446.63;4951777;28;102666;-70
2022/12/09 07:43:50;;;;;;;14.77;8.17;;;;;;;-0.35;85.89;97439.56;4954511;28;102786;-69
2022/12/09 07:46:20;;;;;;;10.10;7.27;;;;;;;-0.25;85.36;97447.72;4936016;28;103304;-69
2022/12/09 07:48:49;;;;;;;12.13;8.27;;;;;;;-0.13;84.97;97447.13;4947901;28;103273;-70
2022/12/09 07:51:17;;;;;;;12.83;9.97;;;;;;;-0.06;84.23;97451.94;4942438;28;102912;-69
2022/12/09 07:53:47;;;;;;;14.17;9.73;;;;;;;-0.08;83.06;97451.16;4951123;28;103900;-70
2022/12/09 07:56:17;;;;;;;13.67;8.03;;;;;;;-0.13;83.79;97457.50;4961298;28;104192;-74
2022/12/09 07:58:47;;;;;;;16.93;12.37;;;;;;;-0.49;86.20;97454.09;4956724;28;103220;-74
2022/12/09 08:01:17;;;;;;;12.53;9.23;;;;;;;-0.25;86.66;97455.50;4966912;28;103011;-70
2022/12/09 08:03:47;;;;;;;14.87;9.80;;;;;;;-0.06;85.73;97453.72;4941573;28;104521;-69
2022/12/09 08:06:17;;;;;;;18.33;11.07;;;;;;;-0.09;86.24;97456.44;4949907;28;103714;-70
2022/12/09 08:08:46;;;;;;;14.73;10.17;;;;;;;0.10;85.97;97454.63;4947478;28;104367;-70
2022/12/09 08:11:16;;;;;;;10.97;8.07;;;;;;;0.30;85.73;97451.00;4948073;28;102722;-74
2022/12/09 08:13:46;;;;;;;11.40;7.77;;;;;;;0.32;85.05;97444.81;4947097;28;103918;-70
2022/12/09 08:16:18;;;;;;;13.13;8.97;;;;;;;0.40;85.51;97440.06;4960387;28;104415;-70
2022/12/09 08:18:46;;;;;;;9.90;7.50;;;;;;;0.61;85.50;97447.66;4938845;28;102769;-70
2022/12/09 08:21:19;;;;;;;10.63;7.77;;;;;;;0.74;85.19;97446.94;4960673;28;102629;-70
2022/12/09 08:23:48;;;;;;;15.23;10.13;;;;;;;0.65;83.74;97437.03;4938047;28;103738;-71
2022/12/09 08:26:20;;;;;;;11.53;8.20;;;;;;;0.70;84.90;97437.66;4923123;28;103233;-70
2022/12/09 08:28:50;;;;;;;12.43;9.90;;;;;;;0.47;84.82;97438.00;4956141;28;103246;-69
2022/12/09 08:31:22;;;;;;;10.83;8.43;;;;;;;0.71;85.59;97439.31;4944733;28;102668;-70
2022/12/09 08:33:53;;;;;;;10.90;7.73;;;;;;;0.84;85.74;97436.91;4956963;28;103512;-69
2022/12/09 08:36:24;;;;;;;12.27;9.10;;;;;;;1.07;85.67;97429.53;4966755;28;103255;-69
2022/12/09 08:38:53;;;;;;;13.23;9.27;;;;;;;1.18;85.27;97427.19;4962025;28;103238;-69
2022/12/09 08:41:33;;;;;;;13.60;9.17;;;;;;;1.05;83.51;97425.34;4943899;28;102842;-71
2022/12/09 08:44:06;;;;;;;12.73;9.77;;;;;;;1.15;83.62;97416.13;4953548;28;103052;-69
2022/12/09 08:46:35;;;;;;;15.57;9.00;;;;;;;1.31;83.13;97416.94;4955944;28;103689;-70
2022/12/09 08:49:04;;;;;;;13.40;9.67;;;;;;;1.58;82.99;97410.19;4935313;28;104256;-69
2022/12/09 08:51:33;;;;;;;12.63;9.47;;;;;;;1.55;83.51;97415.56;4951669;28;102643;-70
2022/12/09 08:54:05;;;;;;;13.43;10.50;;;;;;;1.33;82.33;97417.69;4965037;28;102760;-70
2022/12/09 08:56:33;;;;;;;13.90;10.10;;;;;;;1.22;83.23;97419.22;4965199;28;102882;-69
2022/12/09 08:59:03;;;;;;;14.17;9.40;;;;;;;1.27;84.20;97420.63;4941640;28;103714;-70
2022/12/09 09:01:33;;;;;;;14.37;10.30;;;;;;;1.50;83.60;97409.78;4937775;28;103162;-69
2022/12/09 09:04:05;;;;;;;17.97;10.20;;;;;;;1.54;83.03;97410.47;4936714;28;104016;-70
2022/12/09 09:06:34;;;;;;;13.07;9.87;;;;;;;1.58;82.39;97404.16;4959354;28;103092;-70
2022/12/09 09:09:03;;;;;;;12.13;9.00;;;;;;;1.60;82.25;97403.13;4941407;28;103552;-70
2022/12/09 09:11:32;;;;;;;14.30;9.47;;;;;;;1.71;82.34;97411.16;4949387;28;103313;-70
2022/12/09 09:14:04;;;;;;;13.27;8.67;;;;;;;1.74;81.77;97403.19;4950370;28;104045;-71
2022/12/09 09:16:38;;;;;;;13.13;10.07;;;;;;;1.75;81.26;97407.47;4948467;28;103306;-73
2022/12/09 09:19:06;;;;;;;13.90;10.27;;;;;;;1.59;82.44;97406.69;4956261;28;103641;-71
2022/12/09 09:21:35;;;;;;;15.40;11.13;;;;;;;1.62;81.57;97401.28;4962271;28;103247;-71
2022/12/09 09:24:08;;;;;;;13.13;9.30;;;;;;;1.63;80.40;97397.75;4950677;28;103899;-71
2022/12/09 09:26:39;;;;;;;16.93;10.03;;;;;;;1.81;81.53;97398.47;4961038;28;103990;-70
2022/12/09 09:29:11;;;;;;;11.30;8.27;;;;;;;1.90;82.39;97404.91;4969871;28;104194;-70
2022/12/09 09:31:39;;;;;;;11.87;9.80;;;;;;;1.94;83.08;97407.25;4951727;28;102941;-71
2022/12/09 09:34:07;;;;;;;12.30;9.00;;;;;;;2.06;82.67;97413.50;4975206;28;103596;-71
2022/12/09 09:36:36;;;;;;;12.00;9.10;;;;;;;2.14;81.74;97406.06;4954601;28;103301;-71
2022/12/09 09:39:04;;;;;;;15.73;9.93;;;;;;;2.26;81.59;97405.34;4958393;28;103294;-70
2022/12/09 09:41:43;;;;;;;10.70;8.87;;;;;;;2.24;81.26;97399.41;4955669;28;102543;-70
2022/12/09 09:44:21;;;;;;;11.47;9.10;;;;;;;2.33;81.63;97391.00;4950100;28;103716;-71
2022/12/09 09:46:51;;;;;;;14.60;10.63;;;;;;;2.32;80.55;97397.19;4972411;28;104384;-71
2022/12/09 09:49:29;;;;;;;13.33;9.30;;;;;;;1.99;81.92;97388.75;4951574;28;103237;-73
2022/12/09 09:51:58;;;;;;;15.30;10.27;;;;;;;2.09;82.10;97389.88;4965307;28;103707;-72
2022/12/09 09:54:26;;;;;;;14.10;9.33;;;;;;;1.79;80.48;97381.25;4945606;28;103002;-66
2022/12/09 09:57:00;;;;;;;12.70;8.73;;;;;;;1.77;80.79;97383.13;4950990;28;103173;-68
2022/12/09 09:59:40;;;;;;;13.03;9.47;;;;;;;1.67;81.01;97381.03;4954034;28;103883;-68
2022/12/09 10:02:17;;;;;;;13.17;8.33;;;;;;;1.93;81.37;97371.72;4946334;28;102623;-67
2022/12/09 10:05:03;;;;;;;11.63;9.10;;;;;;;2.18;81.75;97368.50;4946966;28;104513;-71
2022/12/09 10:07:38;;;;;;;22.27;10.23;;;;;;;2.27;81.16;97370.56;4967657;28;103201;-71
2022/12/09 10:10:21;;;;;;;15.47;8.57;;;;;;;2.32;78.96;97376.31;4968131;28;104515;-68
2022/12/09 10:13:03;;;;;;;14.57;9.77;;;;;;;2.53;78.89;97364.59;4964592;28;102762;-69
2022/12/09 10:15:49;;;;;;;14.77;9.83;;;;;;;2.36;78.11;97356.94;4941772;28;103489;-70
2022/12/09 10:18:26;;;;;;;15.20;10.80;;;;;;;2.45;78.15;97364.22;4939713;28;103900;-69
2022/12/09 10:20:55;;;;;;;15.63;10.00;;;;;;;2.22;78.96;97356.94;4967242;28;103019;-69
2022/12/09 10:23:25;;;;;;;14.93;10.23;;;;;;;1.92;80.66;97350.97;4950671;28;103043;-70
2022/12/09 10:25:57;;;;;;;14.73;10.03;;;;;;;2.22;79.67;97351.72;4938525;28;102842;-68
2022/12/09 10:28:30;;;;;;;14.30;10.57;;;;;;;2.03;79.34;97358.97;4945687;28;103300;-69
2022/12/09 10:31:00;;;;;;;13.63;10.40;;;;;;;2.12;81.54;97354.06;4969275;28;104165;-69
2022/12/09 10:33:30;;;;;;;13.27;9.60;;;;;;;2.34;80.91;97356.22;4947104;28;102784;-69
2022/12/09 10:35:59;;;;;;;14.53;10.87;;;;;;;2.43;78.87;97358.28;4962563;28;104013;-69
2022/12/09 10:38:30;;;;;;;14.53;11.27;;;;;;;1.91;79.74;97364.94;4952415;28;103824;-70
2022/12/09 10:41:02;;;;;;;16.23;11.10;;;;;;;2.00;80.83;97362.59;4937749;28;103289;-70
2022/12/09 10:43:34;;;;;;;14.47;10.07;;;;;;;2.42;80.20;97353.97;4946867;28;102744;-71
2022/12/09 10:46:08;;;;;;;15.23;9.30;;;;;;;2.70;79.55;97348.75;4951765;28;103777;-71
2022/12/09 10:48:52;;;;;;;14.17;9.30;;;;;;;2.83;78.36;97336.63;4944693;28;104188;-69
2022/12/09 10:51:24;;;;;;;13.90;10.40;;;;;;;2.66;78.01;97329.03;4946216;28;103149;-71
2022/12/09 10:53:56;;;;;;;14.60;10.13;;;;;;;2.19;79.25;97328.50;4956504;28;103017;-70
2022/12/09 10:56:27;;;;;;;13.47;10.20;;;;;;;2.32;80.72;97324.22;4967156;28;103138;-70
2022/12/09 10:59:09;;;;;;;14.57;10.43;;;;;;;2.62;79.09;97332.75;4961532;28;104751;-70
2022/12/09 11:01:50;;;;;;;15.27;11.17;;;;;;;2.42;78.83;97325.31;4971559;28;103441;-69
2022/12/09 11:04:24;;;;;;;15.37;11.43;;;;;;;2.31;81.01;97322.53;4949210;28;102817;-70
2022/12/09 11:06:56;;;;;;;22.47;12.17;;;;;;;1.85;79.99;97334.88;4949252;28;104033;-69
2022/12/09 11:09:29;;;;;;;14.00;10.53;;;;;;;2.25;79.55;97335.91;4951629;28;103312;-70
2022/12/09 11:11:59;;;;;;;13.17;10.50;;;;;;;2.03;79.33;97327.72;4936748;28;103191;-70
2022/12/09 11:14:32;;;;;;;15.97;10.20;;;;;;;2.12;80.83;97316.75;4939613;28;102900;-70
2022/12/09 11:17:15;;;;;;;15.07;10.50;;;;;;;2.40;79.62;97316.75;4942417;28;102817;-74
2022/12/09 11:19:47;;;;;;;16.83;11.87;;;;;;;2.12;80.38;97320.19;4934964;28;103463;-73
2022/12/09 11:22:37;;;;;;;18.17;12.23;;;;;;;2.53;79.82;97329.84;4965772;28;103213;-72
2022/12/09 11:25:18;;;;;;;16.17;11.67;;;;;;;2.31;78.98;97322.53;4975586;28;102800;-72
2022/12/09 11:27:51;;;;;;;14.43;9.87;;;;;;;2.23;79.39;97314.34;4947541;28;104302;-74
2022/12/09 11:30:20;;;;;;;16.53;10.57;;;;;;;2.20;79.73;97314.50;4960242;28;104283;-72
2022/12/09 11:32:57;;;;;;;18.97;10.47;;;;;;;2.30;80.31;97318.25;4943521;28;103253;-75
2022/12/09 11:35:30;;;;;;;15.50;10.10;;;;;;;2.36;80.84;97307.44;4943028;28;103140;-73
2022/12/09 11:38:12;;;;;;;14.73;10.53;;;;;;;2.74;80.32;97299.84;4948982;28;103026;-74
2022/12/09 11:40:43;;;;;;;13.87;10.37;;;;;;;3.12;78.64;97298.25;4962153;28;103283;-75